createdAt,value
2017-11-19T00:02:12.812Z,3.07
2017-11-19T00:04:45.525Z,3.07
2017-11-19T00:07:14.546Z,3.14
2017-11-19T00:09:48.310Z,3.15
2017-11-19T00:12:17.325Z,3.08
2017-11-19T00:14:46.456Z,3.07
2017-11-19T00:17:15.614Z,3.13
2017-11-19T00:19:44.713Z,3.22
2017-11-19T00:22:13.816Z,3.26
2017-11-19T00:24:47.085Z,3.35
2017-11-19T00:27:16.160Z,3.24
2017-11-19T00:29:45.231Z,3.22
2017-11-19T00:32:16.288Z,3.31
2017-11-19T00:37:20.567Z,3.39
2017-11-19T00:39:56.809Z,3.31
2017-11-19T00:42:25.860Z,3.27
2017-11-19T00:44:54.950Z,3.28
2017-11-19T00:47:24.032Z,3.29
2017-11-19T00:49:53.906Z,3.27
2017-11-19T00:52:23.120Z,3.34
2017-11-19T00:54:53.106Z,3.37
2017-11-19T00:57:22.144Z,3.40
2017-11-19T00:59:52.925Z,3.37
2017-11-19T01:04:59.103Z,3.37
2017-11-19T01:07:28.136Z,3.31
2017-11-19T01:09:57.199Z,3.26
2017-11-19T01:12:26.456Z,3.23
2017-11-19T01:14:57.689Z,3.22
2017-11-19T01:17:26.716Z,3.07
2017-11-19T01:19:55.768Z,3.00
2017-11-19T01:22:30.697Z,3.06
2017-11-19T01:25:01.726Z,2.98
2017-11-19T01:27:31.395Z,2.95
2017-11-19T01:30:01.394Z,2.88
2017-11-19T01:32:30.453Z,2.74
2017-11-19T01:34:59.527Z,2.69
2017-11-19T01:37:28.563Z,2.67
2017-11-19T01:40:03.195Z,2.65
2017-11-19T01:42:32.240Z,2.59
2017-11-19T01:45:01.263Z,2.49
2017-11-19T01:47:30.327Z,2.54
2017-11-19T01:52:37.606Z,2.38
2017-11-19T01:55:06.649Z,2.34
2017-11-19T01:57:36.680Z,2.39
2017-11-19T02:00:05.728Z,2.37
2017-11-19T02:02:36.764Z,2.35
2017-11-19T02:07:45.993Z,2.33
2017-11-19T02:10:15.026Z,2.21
2017-11-19T02:12:47.668Z,2.24
2017-11-19T02:15:16.722Z,2.20
2017-11-19T02:17:50.383Z,2.13
2017-11-19T02:20:19.432Z,2.20
2017-11-19T02:22:56.355Z,2.10
2017-11-19T02:25:31.160Z,2.17
2017-11-19T02:28:13.191Z,2.05
2017-11-19T02:33:19.415Z,1.88
2017-11-19T02:35:52.141Z,1.82
2017-11-19T02:38:21.213Z,1.78
2017-11-19T02:40:50.240Z,1.74
2017-11-19T02:43:19.312Z,1.61
2017-11-19T02:45:48.365Z,1.69
2017-11-19T02:48:17.401Z,1.63
2017-11-19T02:53:24.287Z,1.70
2017-11-19T02:55:55.315Z,1.72
2017-11-19T02:58:24.338Z,1.69
2017-11-19T03:00:53.395Z,1.67
2017-11-19T03:03:22.435Z,1.64
2017-11-19T03:05:53.438Z,1.63
2017-11-19T03:08:22.518Z,1.66
2017-11-19T03:10:51.562Z,1.58
2017-11-19T03:13:21.528Z,1.63
2017-11-19T03:15:50.576Z,1.61
2017-11-19T03:18:19.631Z,1.68
2017-11-19T03:20:52.625Z,1.64
2017-11-19T03:23:21.661Z,1.68
2017-11-19T03:26:08.501Z,1.67
2017-11-19T03:28:37.576Z,1.69
2017-11-19T03:31:10.359Z,1.68
2017-11-19T03:33:41.345Z,1.73
2017-11-19T03:36:10.396Z,1.79
2017-11-19T03:41:14.650Z,1.63
2017-11-19T03:43:45.629Z,1.69
2017-11-19T03:46:14.711Z,1.74
2017-11-19T03:48:45.678Z,1.72
2017-11-19T03:51:14.729Z,1.78
2017-11-19T03:53:43.975Z,1.71
2017-11-19T03:56:13.020Z,1.73
2017-11-19T03:58:45.407Z,1.78
2017-11-19T04:01:14.463Z,1.74
2017-11-19T04:03:44.509Z,1.72
2017-11-19T04:06:13.539Z,1.75
2017-11-19T04:08:42.576Z,1.78
2017-11-19T04:11:11.620Z,1.79
2017-11-19T04:13:40.664Z,1.85
2017-11-19T04:16:15.395Z,1.91
2017-11-19T04:18:45.326Z,1.88
2017-11-19T04:21:37.847Z,1.87
2017-11-19T04:24:06.895Z,1.92
2017-11-19T04:26:35.929Z,1.97
2017-11-19T04:29:05.962Z,2.04
2017-11-19T04:34:10.229Z,2.15
2017-11-19T04:36:39.314Z,2.13
2017-11-19T04:39:08.349Z,2.23
2017-11-19T04:41:37.395Z,2.26
2017-11-19T04:44:15.707Z,2.25
2017-11-19T04:46:44.752Z,2.24
2017-11-19T04:49:14.716Z,2.29
2017-11-19T04:51:45.577Z,2.35
2017-11-19T04:54:14.626Z,2.33
2017-11-19T04:56:43.688Z,2.31
2017-11-19T04:59:12.719Z,2.33
2017-11-19T05:01:43.663Z,2.31
2017-11-19T05:04:13.727Z,2.29
2017-11-19T05:06:42.759Z,2.37
2017-11-19T05:09:11.819Z,2.34
2017-11-19T05:11:40.847Z,2.34
2017-11-19T05:14:16.992Z,2.37
2017-11-19T05:16:46.027Z,2.36
2017-11-19T05:19:15.134Z,2.38
2017-11-19T05:21:45.311Z,2.33
2017-11-19T05:24:19.305Z,2.35
2017-11-19T05:26:48.341Z,2.33
2017-11-19T05:31:52.595Z,2.38
2017-11-19T05:34:28.811Z,2.32
2017-11-19T05:36:57.843Z,2.17
2017-11-19T05:39:31.690Z,2.26
2017-11-19T05:42:00.747Z,2.18
2017-11-19T05:44:38.700Z,2.19
2017-11-19T05:49:43.874Z,2.18
2017-11-19T05:54:48.853Z,2.18
2017-11-19T05:57:17.935Z,2.11
2017-11-19T05:59:46.957Z,2.01
2017-11-19T06:02:17.967Z,1.94
2017-11-19T06:04:46.983Z,1.88
2017-11-19T06:09:53.195Z,1.78
2017-11-19T06:12:22.254Z,1.68
2017-11-19T06:14:51.284Z,1.66
2017-11-19T06:20:08.190Z,1.63
2017-11-19T06:22:39.257Z,1.64
2017-11-19T06:25:11.926Z,1.71
2017-11-19T06:27:40.958Z,1.76
2017-11-19T06:32:45.778Z,1.80
2017-11-19T06:35:20.598Z,1.84
2017-11-19T06:37:49.632Z,1.87
2017-11-19T06:40:18.670Z,1.87
2017-11-19T06:42:47.699Z,1.86
2017-11-19T06:45:16.723Z,1.96
2017-11-19T06:47:45.768Z,1.95
2017-11-19T06:50:14.810Z,1.98
2017-11-19T06:52:43.845Z,1.96
2017-11-19T06:55:12.960Z,1.98
2017-11-19T06:57:41.980Z,2.05
2017-11-19T07:00:11.982Z,2.05
2017-11-19T07:02:41.021Z,2.09
2017-11-19T07:05:13.579Z,2.11
2017-11-19T07:07:42.631Z,2.15
2017-11-19T07:10:12.675Z,2.13
2017-11-19T07:12:41.708Z,2.21
2017-11-19T07:15:12.744Z,2.21
2017-11-19T07:17:41.869Z,2.32
2017-11-19T07:20:16.830Z,2.35
2017-11-19T07:22:45.883Z,2.31
2017-11-19T07:25:15.884Z,2.40
2017-11-19T07:27:45.317Z,2.41
2017-11-19T07:32:52.542Z,2.39
2017-11-19T07:35:21.576Z,2.46
2017-11-19T07:37:50.658Z,2.43
2017-11-19T07:40:21.371Z,2.52
2017-11-19T07:45:32.715Z,2.52
2017-11-19T07:48:01.744Z,2.46
2017-11-19T07:50:30.798Z,2.53
2017-11-19T07:52:59.850Z,2.54
2017-11-19T07:55:32.226Z,2.54
2017-11-19T07:58:01.260Z,2.65
2017-11-19T08:00:37.978Z,2.62
2017-11-19T08:05:42.421Z,2.82
2017-11-19T08:08:11.429Z,2.83
2017-11-19T08:10:40.452Z,2.84
2017-11-19T08:13:14.616Z,2.92
2017-11-19T08:15:43.653Z,2.94
2017-11-19T08:18:30.297Z,3.00
2017-11-19T08:20:59.341Z,2.94
2017-11-19T08:23:29.457Z,2.85
2017-11-19T08:25:58.539Z,2.80
2017-11-19T08:28:33.285Z,2.76
2017-11-19T08:31:03.279Z,2.74
2017-11-19T08:36:07.589Z,2.59
2017-11-19T08:38:37.540Z,2.50
2017-11-19T08:41:06.567Z,2.41
2017-11-19T08:46:21.838Z,2.71
2017-11-19T08:48:50.882Z,2.70
2017-11-19T08:51:23.516Z,2.76
2017-11-19T08:53:52.611Z,2.73
2017-11-19T08:56:29.385Z,2.73
2017-11-19T08:58:58.524Z,2.54
2017-11-19T09:01:28.519Z,2.56
2017-11-19T09:03:57.583Z,2.50
2017-11-19T09:06:27.604Z,2.45
2017-11-19T09:08:56.660Z,2.53
2017-11-19T09:11:26.674Z,2.42
2017-11-19T09:13:55.703Z,2.41
2017-11-19T09:16:24.754Z,2.34
2017-11-19T09:18:53.965Z,2.38
2017-11-19T09:21:22.999Z,2.51
2017-11-19T09:23:52.041Z,2.58
2017-11-19T09:26:21.073Z,2.67
2017-11-19T09:28:50.137Z,2.75
2017-11-19T09:31:21.163Z,2.76
2017-11-19T09:33:51.105Z,2.76
2017-11-19T09:38:57.393Z,2.73
2017-11-19T09:41:30.176Z,2.73
2017-11-19T09:43:59.239Z,2.75
2017-11-19T09:46:28.270Z,2.71
2017-11-19T09:48:57.327Z,2.72
2017-11-19T09:51:26.364Z,2.79
2017-11-19T09:53:55.455Z,2.86
2017-11-19T09:56:24.482Z,2.88
2017-11-19T09:58:53.538Z,2.93
2017-11-19T10:03:57.872Z,3.00
2017-11-19T10:06:41.205Z,3.04
2017-11-19T10:09:10.336Z,3.21
2017-11-19T10:11:40.332Z,3.21
2017-11-19T10:16:49.388Z,3.14
2017-11-19T10:21:59.400Z,3.01
2017-11-19T10:30:14.169Z,3.17
2017-11-19T10:32:44.807Z,3.15
2017-11-19T10:35:27.539Z,3.20
2017-11-19T10:40:39.518Z,3.30
2017-11-19T10:43:28.223Z,3.31
2017-11-19T10:46:12.207Z,3.43
2017-11-19T10:48:41.292Z,3.40
2017-11-19T10:51:10.439Z,3.44
2017-11-19T10:53:39.549Z,3.78
2017-11-19T10:56:12.184Z,3.91
2017-11-19T10:58:41.255Z,3.79
2017-11-19T11:01:23.044Z,3.91
2017-11-19T11:06:33.086Z,3.45
2017-11-19T11:09:02.162Z,3.45
2017-11-19T11:11:36.809Z,3.58
2017-11-19T11:14:09.542Z,4.19
2017-11-19T11:16:38.592Z,6.15
2017-11-19T11:19:07.725Z,7.57
2017-11-19T11:21:36.770Z,6.91
2017-11-19T11:24:10.800Z,6.71
2017-11-19T11:26:39.858Z,6.56
2017-11-19T11:29:21.376Z,6.95
2017-11-19T11:31:52.357Z,7.13
2017-11-19T11:34:21.454Z,6.22
2017-11-19T11:36:50.493Z,5.58
2017-11-19T11:39:19.612Z,5.62
2017-11-19T11:44:23.827Z,4.91
2017-11-19T11:46:52.855Z,4.43
2017-11-19T11:49:22.999Z,4.09
2017-11-19T11:51:52.027Z,4.12
2017-11-19T11:54:21.064Z,3.92
2017-11-19T11:56:50.127Z,3.95
2017-11-19T11:59:19.169Z,4.09
2017-11-19T12:01:48.224Z,4.62
2017-11-19T12:04:17.303Z,4.81
2017-11-19T12:06:46.336Z,4.41
2017-11-19T12:09:15.420Z,4.36
2017-11-19T12:11:45.387Z,4.85
2017-11-19T12:14:24.384Z,4.84
2017-11-19T12:16:53.416Z,5.16
2017-11-19T12:19:44.881Z,5.01
2017-11-19T12:22:37.836Z,4.64
2017-11-19T12:25:17.983Z,4.61
2017-11-19T12:27:47.189Z,4.52
2017-11-19T12:30:16.218Z,4.30
2017-11-19T12:32:45.267Z,4.21
2017-11-19T12:35:14.333Z,4.09
2017-11-19T12:37:43.377Z,3.95
2017-11-19T12:40:50.708Z,3.89
2017-11-19T12:45:54.985Z,3.89
2017-11-19T12:48:27.749Z,3.90
2017-11-19T12:50:56.830Z,3.85
2017-11-19T12:53:25.857Z,3.65
2017-11-19T12:55:54.903Z,3.78
2017-11-19T12:58:23.975Z,3.74
2017-11-19T13:00:53.005Z,3.88
2017-11-19T13:03:22.064Z,3.94
2017-11-19T13:05:51.084Z,3.76
2017-11-19T13:08:30.520Z,3.71
2017-11-19T13:10:59.588Z,3.62
2017-11-19T13:13:45.835Z,3.78
2017-11-19T13:16:14.881Z,3.58
2017-11-19T13:18:44.862Z,3.66
2017-11-19T13:21:13.895Z,4.56
2017-11-19T13:23:45.599Z,4.54
2017-11-19T13:26:16.586Z,6.05
2017-11-19T13:28:45.617Z,8.08
2017-11-19T13:31:14.651Z,8.48
2017-11-19T13:33:43.684Z,7.89
2017-11-19T13:36:17.204Z,7.93
2017-11-19T13:39:12.811Z,6.23
2017-11-19T13:41:41.840Z,4.76
2017-11-19T13:44:10.935Z,4.77
2017-11-19T13:49:15.158Z,5.67
2017-11-19T13:51:46.152Z,5.01
2017-11-19T13:54:15.199Z,4.68
2017-11-19T13:57:12.346Z,4.18
2017-11-19T13:59:45.100Z,4.13
2017-11-19T14:02:14.136Z,3.92
2017-11-19T14:04:53.331Z,3.91
2017-11-19T14:07:22.596Z,4.11
2017-11-19T14:09:51.628Z,4.97
2017-11-19T14:12:20.671Z,5.57
2017-11-19T14:14:49.715Z,5.73
2017-11-19T14:17:18.761Z,5.88
2017-11-19T14:19:51.574Z,5.50
2017-11-19T14:22:20.614Z,5.52
2017-11-19T14:24:50.610Z,5.11
2017-11-19T14:27:19.671Z,4.99
2017-11-19T14:29:58.420Z,4.65
2017-11-19T14:32:27.487Z,4.51
2017-11-19T14:35:04.604Z,4.40
2017-11-19T14:37:41.389Z,4.21
2017-11-19T14:40:10.465Z,4.15
2017-11-19T14:42:39.502Z,4.00
2017-11-19T14:45:08.542Z,3.93
2017-11-19T14:47:38.578Z,3.89
2017-11-19T14:52:48.187Z,3.76
2017-11-19T14:55:17.300Z,3.60
2017-11-19T14:57:46.366Z,3.55
2017-11-19T15:00:15.462Z,3.71
2017-11-19T15:02:45.468Z,3.72
2017-11-19T15:05:14.507Z,3.59
2017-11-19T15:07:46.764Z,3.62
2017-11-19T15:10:15.843Z,3.56
2017-11-19T15:15:20.122Z,3.31
2017-11-19T15:20:27.371Z,3.33
2017-11-19T15:25:42.794Z,3.26
2017-11-19T15:28:12.972Z,3.18
2017-11-19T15:30:46.447Z,3.18
2017-11-19T15:33:15.557Z,3.13
2017-11-19T15:35:47.691Z,3.16
2017-11-19T15:38:16.727Z,3.12
2017-11-19T15:43:32.963Z,2.99
2017-11-19T15:46:02.066Z,3.09
2017-11-19T15:48:31.113Z,3.11
2017-11-19T15:51:03.923Z,3.07
2017-11-19T15:53:32.948Z,3.07
2017-11-19T15:58:43.310Z,3.12
2017-11-19T16:01:12.371Z,3.00
2017-11-19T16:06:16.629Z,3.12
2017-11-19T16:08:49.577Z,3.07
2017-11-19T16:11:18.612Z,3.04
2017-11-19T16:13:51.461Z,3.03
2017-11-19T16:16:20.545Z,3.02
2017-11-19T16:18:58.175Z,2.98
2017-11-19T16:21:27.217Z,2.97
2017-11-19T16:23:56.409Z,2.96
2017-11-19T16:26:25.491Z,2.95
2017-11-19T16:28:54.657Z,2.98
2017-11-19T16:31:23.731Z,3.01
2017-11-19T16:33:52.778Z,2.97
2017-11-19T16:36:21.789Z,2.99
2017-11-19T16:44:15.751Z,3.03
2017-11-19T16:46:48.731Z,3.02
2017-11-19T16:49:17.897Z,3.02
2017-11-19T16:51:46.944Z,3.02
2017-11-19T16:54:15.996Z,3.04
2017-11-19T16:56:45.035Z,3.01
2017-11-19T16:59:14.087Z,3.12
2017-11-19T17:01:46.740Z,3.04
2017-11-19T17:04:17.728Z,3.08
2017-11-19T17:06:46.775Z,3.12
2017-11-19T17:09:15.831Z,3.06
2017-11-19T17:11:44.875Z,3.05
2017-11-19T17:14:13.945Z,3.01
2017-11-19T17:16:42.999Z,3.08
2017-11-19T17:19:12.054Z,3.08
2017-11-19T17:21:42.161Z,3.03
2017-11-19T17:24:11.224Z,3.10
2017-11-19T17:26:40.280Z,3.01
2017-11-19T17:29:09.306Z,2.99
2017-11-19T17:31:38.366Z,2.98
2017-11-19T17:34:07.417Z,3.01
2017-11-19T17:36:40.484Z,2.98
2017-11-19T17:39:09.530Z,3.07
2017-11-19T17:41:38.571Z,3.01
2017-11-19T17:44:07.728Z,3.01
2017-11-19T17:46:36.769Z,3.00
2017-11-19T17:49:06.716Z,3.09
2017-11-19T17:51:37.774Z,3.10
2017-11-19T17:54:07.728Z,3.06
2017-11-19T18:02:07.646Z,3.06
2017-11-19T18:04:36.728Z,3.10
2017-11-19T18:07:06.690Z,3.08
2017-11-19T18:12:11.236Z,3.08
2017-11-19T18:14:40.953Z,3.11
2017-11-19T18:17:09.978Z,3.08
2017-11-19T18:19:39.972Z,3.06
2017-11-19T18:22:09.068Z,3.06
2017-11-19T18:24:38.119Z,3.03
2017-11-19T18:27:07.240Z,2.97
2017-11-19T18:29:36.316Z,3.05
2017-11-19T18:32:06.292Z,3.12
2017-11-19T18:34:37.306Z,3.06
2017-11-19T18:37:06.365Z,3.01
2017-11-19T18:39:35.424Z,3.07
2017-11-19T18:42:04.467Z,3.08
2017-11-19T18:44:34.867Z,3.13
2017-11-19T18:47:03.944Z,3.13
2017-11-19T18:52:12.500Z,3.14
2017-11-19T18:57:18.818Z,3.15
2017-11-19T18:59:48.803Z,3.14
2017-11-19T19:02:17.835Z,3.13
2017-11-19T19:04:48.840Z,3.08
2017-11-19T19:07:17.993Z,3.10
2017-11-19T19:09:47.087Z,3.14
2017-11-19T19:12:16.198Z,3.11
2017-11-19T19:14:49.127Z,3.13
2017-11-19T19:17:18.228Z,3.08
2017-11-19T19:19:52.871Z,3.05
2017-11-19T19:22:21.933Z,3.01
2017-11-19T19:24:55.335Z,3.09
2017-11-19T19:27:24.557Z,3.08
2017-11-19T19:29:55.530Z,3.13
2017-11-19T19:32:25.532Z,3.11
2017-11-19T19:34:54.559Z,3.11
2017-11-19T19:37:23.623Z,3.13
2017-11-19T19:39:54.801Z,3.24
2017-11-19T19:42:23.826Z,3.19
2017-11-19T19:44:56.045Z,3.21
2017-11-19T19:47:25.360Z,3.18
2017-11-19T19:49:54.386Z,3.20
2017-11-19T19:52:23.480Z,3.17
2017-11-19T19:54:56.518Z,3.20
2017-11-19T19:57:25.572Z,3.25
2017-11-19T19:59:54.698Z,3.27
2017-11-19T20:02:23.951Z,3.26
2017-11-19T20:07:33.292Z,3.23
2017-11-19T20:10:07.228Z,3.25
2017-11-19T20:12:40.190Z,3.30
2017-11-19T20:15:09.204Z,3.22
2017-11-19T20:20:16.409Z,3.26
2017-11-19T20:25:23.629Z,3.15
2017-11-19T20:30:31.706Z,3.19
2017-11-19T20:35:36.377Z,3.16
2017-11-19T20:38:05.418Z,3.15
2017-11-19T20:40:34.457Z,3.13
2017-11-19T20:43:05.434Z,3.11
2017-11-19T20:45:35.450Z,3.02
2017-11-19T20:48:04.532Z,3.04
2017-11-19T20:50:35.560Z,3.07
2017-11-19T20:53:06.642Z,2.99
2017-11-19T20:55:39.824Z,3.04
2017-11-19T20:58:08.973Z,3.07
2017-11-19T21:00:41.481Z,3.05
2017-11-19T21:03:10.612Z,3.04
2017-11-19T21:05:41.611Z,2.95
2017-11-19T21:08:10.653Z,2.94
2017-11-19T21:10:47.519Z,2.97
2017-11-19T21:13:16.676Z,2.85
2017-11-19T21:15:51.331Z,2.88
2017-11-19T21:18:20.402Z,2.97
2017-11-19T21:20:49.446Z,2.98
2017-11-19T21:23:18.522Z,3.03
2017-11-19T21:25:47.555Z,3.01
2017-11-19T21:28:18.928Z,3.05
2017-11-19T21:30:46.535Z,3.05
2017-11-19T21:33:15.653Z,3.02
2017-11-19T21:35:44.940Z,3.07
2017-11-19T21:38:14.026Z,3.13
2017-11-19T21:40:44.056Z,3.12
2017-11-19T21:43:13.135Z,3.06
2017-11-19T21:45:42.195Z,3.05
2017-11-19T21:48:11.231Z,3.08
2017-11-19T21:50:40.293Z,3.15
2017-11-19T21:53:09.311Z,3.14
2017-11-19T21:58:18.025Z,3.18
2017-11-19T22:00:48.011Z,3.12
2017-11-19T22:03:17.959Z,3.11
2017-11-19T22:05:46.986Z,3.15
2017-11-19T22:08:16.046Z,3.21
2017-11-19T22:10:45.116Z,3.18
2017-11-19T22:13:15.149Z,3.21
2017-11-19T22:15:44.238Z,3.14
2017-11-19T22:18:13.278Z,3.22
2017-11-19T22:20:42.342Z,3.21
2017-11-19T22:23:13.391Z,3.18
2017-11-19T22:25:42.456Z,3.22
2017-11-19T22:28:11.508Z,3.16
2017-11-19T22:30:40.511Z,3.27
2017-11-19T22:35:47.746Z,3.21
2017-11-19T22:40:55.995Z,3.24
2017-11-19T22:43:25.025Z,3.22
2017-11-19T22:45:54.081Z,3.14
2017-11-19T22:50:58.407Z,3.21
2017-11-19T22:53:28.364Z,3.17
2017-11-19T22:55:57.407Z,3.21
2017-11-19T22:58:28.338Z,3.25
2017-11-19T23:00:57.384Z,3.26
2017-11-19T23:03:31.624Z,3.23
2017-11-19T23:06:00.686Z,3.27
2017-11-19T23:08:37.769Z,3.11
2017-11-19T23:11:28.612Z,3.21
2017-11-19T23:13:57.652Z,3.17
2017-11-19T23:16:28.747Z,3.17
2017-11-19T23:18:57.782Z,3.16
2017-11-19T23:21:34.062Z,3.21
2017-11-19T23:24:08.739Z,3.13
2017-11-19T23:26:38.751Z,3.14
2017-11-19T23:29:07.807Z,3.15
2017-11-19T23:31:47.839Z,3.15
2017-11-19T23:34:16.931Z,3.21
2017-11-19T23:36:48.099Z,3.15
2017-11-19T23:39:17.168Z,3.12
2017-11-19T23:41:52.067Z,3.16
2017-11-19T23:44:21.099Z,3.13
2017-11-19T23:46:50.181Z,3.16
2017-11-19T23:49:19.216Z,3.14
2017-11-19T23:51:49.406Z,3.13
2017-11-19T23:54:18.411Z,3.15
2017-11-19T23:59:22.729Z,3.08
